Time;durP1;ratioP1;P1;durP2;ratioP2;P2;SDS_P1;SDS_P2;PMS_P1;PMS_P2;Temp;Humidity;BMP_temperature;BMP_pressure;BME280_temperature;BME280_humidity;BME280_pressure;Samples;Min_cycle;Max_cycle;Signal;HPM_P1;HPM_P2
2022/08/14 00:01:48;;;;;;;11.73;4.25;;;;;;;25.44;43.67;101324.47;4844359;29;20086;-59
2022/08/14 00:04:14;;;;;;;9.15;3.53;;;;;;;25.29;43.23;101324.66;4844328;29;20038;-60
2022/08/14 00:06:40;;;;;;;7.05;3.75;;;;;;;25.18;42.89;101328.63;4844152;29;20034;-56
2022/08/14 00:09:06;;;;;;;8.98;4.05;;;;;;;24.89;44.24;101326.72;4843961;29;20025;-56
2022/08/14 00:11:33;;;;;;;13.27;4.43;;;;;;;24.63;46.01;101333.56;4843964;29;20030;-56
2022/08/14 00:14:02;;;;;;;14.13;4.20;;;;;;;24.69;45.35;101326.94;4844154;29;20025;-56
2022/08/14 00:16:28;;;;;;;10.02;3.95;;;;;;;24.55;45.67;101321.31;4842702;29;20074;-56
2022/08/14 00:18:55;;;;;;;11.77;3.22;;;;;;;24.67;46.70;101319.00;4843901;29;20029;-56
2022/08/14 00:21:21;;;;;;;8.63;3.38;;;;;;;24.74;45.81;101330.44;4844081;29;20071;-57
2022/08/14 00:23:48;;;;;;;14.20;4.32;;;;;;;24.36;46.93;101323.94;4843867;29;20033;-56
2022/08/14 00:26:14;;;;;;;14.30;3.90;;;;;;;24.37;47.39;101324.75;4843760;29;20120;-56
2022/08/14 00:28:40;;;;;;;9.48;4.03;;;;;;;24.44;47.17;101319.78;4844076;29;20034;-56
2022/08/14 00:31:06;;;;;;;11.88;3.67;;;;;;;24.33;47.37;101319.03;4843698;29;20147;-56
2022/08/14 00:33:33;;;;;;;10.73;4.15;;;;;;;24.12;48.02;101317.56;4843639;29;20034;-56
2022/08/14 00:35:59;;;;;;;10.23;3.72;;;;;;;24.15;48.07;101317.81;4843563;29;20459;-56
2022/08/14 00:38:25;;;;;;;10.18;3.45;;;;;;;24.16;47.11;101313.16;4844005;29;20043;-60
2022/08/14 00:40:52;;;;;;;11.88;4.15;;;;;;;24.13;47.87;101306.31;4843704;29;20037;-59
2022/08/14 00:43:18;;;;;;;10.50;3.90;;;;;;;23.96;48.03;101317.66;4843373;29;20069;-59
2022/08/14 00:45:44;;;;;;;7.82;3.72;;;;;;;24.00;47.94;101303.44;4843505;29;20065;-60
2022/08/14 00:48:11;;;;;;;12.00;3.92;;;;;;;23.94;47.35;101311.66;4843261;29;20061;-58
2022/08/14 00:50:38;;;;;;;15.73;4.18;;;;;;;23.95;47.91;101307.81;4843374;29;20030;-59
2022/08/14 00:53:05;;;;;;;14.95;4.25;;;;;;;23.71;48.65;101309.63;4843068;29;20045;-58
2022/08/14 00:55:35;;;;;;;14.65;4.60;;;;;;;23.50;48.71;101308.09;4843307;29;20045;-58
2022/08/14 01:00:49;;;;;;;11.15;4.00;;;;;;;23.34;49.66;101302.69;4843433;29;20065;-58
2022/08/14 01:03:17;;;;;;;19.48;4.63;;;;;;;22.86;50.69;101305.00;4843408;29;20030;-59
2022/08/14 01:05:48;;;;;;;12.60;4.28;;;;;;;22.88;50.62;101299.31;4843199;29;20090;-59
2022/08/14 01:08:22;;;;;;;10.63;3.85;;;;;;;23.07;51.23;101296.78;4842990;29;20033;-59
2022/08/14 01:10:52;;;;;;;10.10;4.27;;;;;;;23.06;50.94;101298.69;4842936;29;20459;-59
2022/08/14 01:13:22;;;;;;;13.07;4.38;;;;;;;23.04;50.53;101289.97;4842968;29;20262;-61
2022/08/14 01:15:52;;;;;;;13.32;4.90;;;;;;;22.95;50.74;101288.09;4842888;29;20483;-59
2022/08/14 01:21:10;;;;;;;12.85;4.35;;;;;;;22.62;52.08;101301.25;4842935;29;20074;-59
2022/08/14 01:23:39;;;;;;;17.70;4.43;;;;;;;22.49;51.79;101296.34;4842797;29;20022;-59
2022/08/14 01:26:07;;;;;;;10.25;3.85;;;;;;;22.36;52.47;101287.63;4842802;29;20098;-60
2022/08/14 01:28:37;;;;;;;11.07;4.22;;;;;;;22.39;52.21;101291.72;4842680;29;20073;-61
2022/08/14 01:31:07;;;;;;;14.70;4.18;;;;;;;22.53;52.30;101289.22;4842699;29;20369;-60
2022/08/14 01:33:39;;;;;;;9.90;4.00;;;;;;;22.53;52.96;101286.50;4842515;29;20479;-62
2022/08/14 01:36:08;;;;;;;11.80;4.32;;;;;;;22.50;52.32;101287.88;4842713;29;20061;-61
2022/08/14 01:38:34;;;;;;;11.10;4.65;;;;;;;22.30;52.59;101285.97;4842856;29;20026;-60
2022/08/14 01:41:05;;;;;;;13.02;3.95;;;;;;;22.11;53.95;101285.72;4843106;29;20174;-60
2022/08/14 01:43:37;;;;;;;19.30;4.72;;;;;;;22.08;53.79;101283.50;4842639;29;20172;-60
2022/08/14 01:46:05;;;;;;;14.30;4.15;;;;;;;22.04;53.62;101284.31;4826902;29;20053;-60
2022/08/14 01:48:31;;;;;;;15.60;4.22;;;;;;;21.93;54.33;101278.06;4842732;29;20440;-60
2022/08/14 01:51:02;;;;;;;12.55;4.28;;;;;;;21.97;54.56;101283.78;4842696;29;20034;-60
2022/08/14 01:53:30;;;;;;;12.00;3.83;;;;;;;21.96;53.56;101282.13;4842507;29;20041;-60
2022/08/14 01:56:02;;;;;;;12.00;4.28;;;;;;;21.90;53.47;101272.31;4842235;29;20127;-60
2022/08/14 01:58:28;;;;;;;18.35;4.95;;;;;;;21.53;54.73;101273.34;4842607;29;20060;-64
2022/08/14 02:00:55;;;;;;;18.73;5.88;;;;;;;21.28;55.24;101272.16;4842744;29;20619;-64
2022/08/14 02:03:33;;;;;;;15.95;4.45;;;;;;;20.94;55.94;101279.09;4841930;29;20390;-62
2022/08/14 02:06:01;;;;;;;18.10;5.47;;;;;;;21.01;56.33;101277.75;4842754;29;20106;-63
2022/08/14 02:08:30;;;;;;;14.88;4.75;;;;;;;21.17;55.73;101278.66;4842019;29;20074;-64
2022/08/14 02:11:21;;;;;;;19.83;5.07;;;;;;;21.03;56.34;101274.75;4842372;29;20026;-65
2022/08/14 02:14:00;;;;;;;15.80;5.25;;;;;;;21.04;56.70;101270.94;4842367;29;20431;-64
2022/08/14 02:16:32;;;;;;;15.95;4.82;;;;;;;20.73;57.47;101273.53;4842332;29;20034;-59
2022/08/14 02:19:01;;;;;;;18.98;4.70;;;;;;;20.77;57.66;101282.81;4842281;29;20034;-60
2022/08/14 02:21:31;;;;;;;19.98;5.22;;;;;;;20.73;57.82;101283.59;4842231;29;20042;-60
2022/08/14 02:24:00;;;;;;;19.98;4.95;;;;;;;20.65;57.83;101279.44;4842457;29;20030;-60
2022/08/14 02:26:30;;;;;;;20.55;5.07;;;;;;;20.46;58.54;101283.69;4841949;29;20519;-60
2022/08/14 02:29:03;;;;;;;24.13;5.18;;;;;;;20.26;59.20;101278.88;4842888;29;20030;-60
2022/08/14 02:31:32;;;;;;;19.45;5.22;;;;;;;19.99;60.12;101278.94;4841943;29;20026;-63
2022/08/14 02:33:59;;;;;;;20.17;5.18;;;;;;;19.93;61.04;101278.06;4841550;29;20037;-63
2022/08/14 02:36:26;;;;;;;14.15;5.00;;;;;;;19.84;60.86;101290.47;4842254;29;20034;-64
2022/08/14 02:38:52;;;;;;;15.93;4.75;;;;;;;19.60;61.28;101279.09;4842986;29;20091;-65
2022/08/14 02:41:18;;;;;;;22.35;6.07;;;;;;;19.67;61.42;101287.03;4845580;29;20030;-64
2022/08/14 02:43:45;;;;;;;17.52;5.30;;;;;;;19.45;62.40;101296.00;4845518;29;20026;-64
2022/08/14 02:46:11;;;;;;;13.98;4.65;;;;;;;19.29;62.66;101287.94;4845507;29;20407;-65
2022/08/14 02:48:42;;;;;;;22.35;6.35;;;;;;;19.15;63.27;101287.47;4845712;29;20085;-62
2022/08/14 02:51:12;;;;;;;15.93;5.50;;;;;;;18.99;63.90;101289.19;4845814;29;20348;-65
2022/08/14 02:53:44;;;;;;;21.48;4.53;;;;;;;19.01;63.92;101291.63;4845628;29;20069;-65
2022/08/14 02:56:15;;;;;;;19.02;5.13;;;;;;;18.79;64.41;101284.28;4845384;29;20030;-60
2022/08/14 02:58:47;;;;;;;27.83;6.78;;;;;;;18.64;65.07;101289.44;4845309;29;20034;-60
2022/08/14 03:01:15;;;;;;;18.92;5.85;;;;;;;18.49;65.54;101284.66;4845267;29;20065;-59
2022/08/14 03:03:42;;;;;;;15.00;5.88;;;;;;;18.37;65.80;101286.59;4845424;29;20034;-60
2022/08/14 03:06:10;;;;;;;16.20;5.43;;;;;;;18.31;65.93;101287.59;4845326;29;20487;-60
2022/08/14 03:08:37;;;;;;;14.00;4.97;;;;;;;18.37;65.69;101287.41;4845062;29;20544;-60
2022/08/14 03:11:08;;;;;;;16.23;5.55;;;;;;;18.44;65.12;101289.97;4845272;29;20030;-60
2022/08/14 03:13:36;;;;;;;20.23;5.32;;;;;;;18.20;66.45;101292.00;4845061;29;20456;-60
2022/08/14 03:16:05;;;;;;;17.13;5.68;;;;;;;18.12;66.96;101287.03;4845058;29;20499;-59
2022/08/14 03:18:31;;;;;;;15.00;5.43;;;;;;;18.00;67.21;101300.63;4845001;29;20116;-59
2022/08/14 03:21:00;;;;;;;17.80;5.70;;;;;;;17.86;67.78;101297.38;4845418;29;20117;-59
2022/08/14 03:23:26;;;;;;;17.77;5.55;;;;;;;17.85;67.56;101306.59;4845245;29;20064;-59
2022/08/14 03:25:53;;;;;;;21.00;6.05;;;;;;;17.82;67.68;101292.69;4845065;29;20117;-59
2022/08/14 03:28:19;;;;;;;27.30;6.65;;;;;;;17.81;67.57;101299.19;4828009;29;20066;-58
2022/08/14 03:30:45;;;;;;;19.55;5.90;;;;;;;17.77;68.07;101306.16;4844853;29;20030;-58
2022/08/14 03:33:12;;;;;;;26.85;5.78;;;;;;;17.71;68.35;101301.66;4845214;29;20073;-58
2022/08/14 03:35:41;;;;;;;20.30;6.65;;;;;;;17.58;68.67;101303.59;4844573;29;20480;-58
2022/08/14 03:38:13;;;;;;;19.52;6.53;;;;;;;17.47;69.10;101304.47;4844667;29;20045;-58
2022/08/14 03:40:40;;;;;;;20.25;5.97;;;;;;;17.48;68.98;101306.09;4844809;29;20030;-58
2022/08/14 03:43:08;;;;;;;20.20;6.55;;;;;;;17.37;69.49;101307.78;4844688;29;20034;-58
2022/08/14 03:45:36;;;;;;;17.10;6.32;;;;;;;17.47;69.23;101301.75;4844480;29;20145;-58
2022/08/14 03:48:13;;;;;;;22.55;5.95;;;;;;;17.35;69.96;101318.03;4844648;29;20081;-58
2022/08/14 03:50:43;;;;;;;14.65;6.07;;;;;;;17.20;70.32;101308.78;4844488;29;20030;-58
2022/08/14 03:53:12;;;;;;;27.35;6.30;;;;;;;17.22;70.42;101315.59;4844567;29;20026;-58
2022/08/14 03:55:38;;;;;;;21.00;6.38;;;;;;;17.46;69.67;101319.06;4844411;29;20100;-59
2022/08/14 03:58:08;;;;;;;20.40;5.95;;;;;;;17.43;69.67;101314.13;4844461;29;20029;-58
2022/08/14 04:00:38;;;;;;;17.27;5.90;;;;;;;17.29;70.08;101318.19;4844317;29;20082;-58
2022/08/14 04:03:09;;;;;;;26.48;6.07;;;;;;;17.28;70.63;101316.53;4844785;29;20108;-58
2022/08/14 04:05:37;;;;;;;21.90;6.20;;;;;;;17.23;70.69;101319.13;4844180;29;20034;-59
2022/08/14 04:08:07;;;;;;;25.55;6.57;;;;;;;17.15;71.13;101328.41;4844259;29;20033;-58
2022/08/14 04:10:34;;;;;;;22.25;6.72;;;;;;;17.12;70.91;101324.31;4844460;29;20530;-58
2022/08/14 04:13:01;;;;;;;23.42;7.15;;;;;;;17.13;70.85;101325.13;4844202;29;20029;-58
2022/08/14 04:15:28;;;;;;;22.35;6.35;;;;;;;17.09;71.24;101330.19;4844134;29;20428;-58
2022/08/14 04:17:55;;;;;;;18.00;6.68;;;;;;;17.12;71.01;101331.63;4844076;29;20034;-58
2022/08/14 04:20:21;;;;;;;17.23;5.40;;;;;;;17.17;70.83;101320.91;4844286;29;20066;-59
2022/08/14 04:22:49;;;;;;;19.27;5.78;;;;;;;16.95;71.49;101334.22;4844163;29;20082;-58
2022/08/14 04:25:15;;;;;;;22.25;5.88;;;;;;;17.11;71.20;101333.50;4844198;29;20034;-58
2022/08/14 04:27:42;;;;;;;22.52;6.60;;;;;;;17.14;70.93;101327.59;4843987;29;20030;-58
2022/08/14 04:30:09;;;;;;;24.67;6.72;;;;;;;16.88;71.68;101333.53;4843754;29;20022;-58
2022/08/14 04:32:35;;;;;;;18.73;6.00;;;;;;;16.85;71.95;101333.97;4843772;29;20491;-58
2022/08/14 04:35:02;;;;;;;18.63;6.05;;;;;;;16.84;71.44;101338.56;4844376;29;20058;-58
2022/08/14 04:45:43;;;;;;;21.75;6.63;;;;;;;16.77;71.97;101337.06;4843875;29;20153;-58
2022/08/14 04:48:13;;;;;;;22.13;6.40;;;;;;;16.60;72.51;101339.56;4844147;29;20060;-58
2022/08/14 04:50:45;;;;;;;21.48;6.75;;;;;;;16.53;72.93;101336.97;4843775;29;20030;-58
2022/08/14 04:53:15;;;;;;;27.83;7.25;;;;;;;16.47;73.16;101337.91;4843780;29;20034;-58
2022/08/14 04:55:47;;;;;;;21.05;6.72;;;;;;;16.54;73.33;101346.72;4843398;29;20030;-58
2022/08/14 04:58:14;;;;;;;23.35;7.00;;;;;;;16.54;72.94;101337.81;4843683;29;20057;-58
2022/08/14 05:00:40;;;;;;;27.60;6.70;;;;;;;16.52;73.29;101332.63;4843287;29;20041;-58
2022/08/14 05:03:10;;;;;;;26.00;6.70;;;;;;;16.50;73.41;101340.16;4843035;29;20037;-59
2022/08/14 05:05:36;;;;;;;21.17;6.88;;;;;;;16.57;72.99;101340.88;4843326;29;20026;-58
2022/08/14 05:08:11;;;;;;;23.27;7.35;;;;;;;16.51;73.71;101349.91;4843250;29;20037;-58
2022/08/14 05:10:43;;;;;;;22.98;6.90;;;;;;;16.50;73.88;101345.56;4843441;29;20045;-58
2022/08/14 05:13:10;;;;;;;23.45;7.03;;;;;;;16.60;72.99;101340.41;4843398;29;20030;-58
2022/08/14 05:15:38;;;;;;;20.13;6.65;;;;;;;16.57;73.58;101342.75;4842965;29;20030;-58
2022/08/14 05:18:11;;;;;;;24.45;6.65;;;;;;;16.69;73.26;101350.88;4842869;29;20370;-58
2022/08/14 05:20:42;;;;;;;24.13;6.68;;;;;;;16.66;73.36;101356.72;4842805;29;20036;-58
2022/08/14 05:23:09;;;;;;;26.17;7.15;;;;;;;16.61;73.48;101355.56;4842967;29;20395;-58
2022/08/14 05:25:36;;;;;;;22.83;6.80;;;;;;;16.68;73.71;101355.47;4842725;29;20037;-58
2022/08/14 05:28:20;;;;;;;24.42;6.53;;;;;;;16.56;73.63;101354.63;4842878;29;20383;-58
2022/08/14 05:30:55;;;;;;;21.63;6.43;;;;;;;16.57;72.86;101354.38;4843283;29;20040;-58
2022/08/14 05:33:24;;;;;;;21.10;6.53;;;;;;;16.43;73.62;101355.63;4842892;29;20049;-58
2022/08/14 05:35:52;;;;;;;17.23;6.63;;;;;;;16.48;73.45;101357.66;4842546;29;20372;-57
2022/08/14 05:38:23;;;;;;;28.73;7.25;;;;;;;16.43;73.74;101366.44;4842517;29;20433;-58
2022/08/14 05:40:49;;;;;;;23.90;6.50;;;;;;;16.34;73.24;101360.56;4842730;29;20109;-58
2022/08/14 05:43:17;;;;;;;29.98;6.55;;;;;;;16.17;74.04;101365.00;4842348;29;20026;-58
2022/08/14 05:45:43;;;;;;;25.65;6.88;;;;;;;16.25;74.02;101372.75;4842510;29;20122;-58
2022/08/14 05:48:14;;;;;;;20.25;6.13;;;;;;;16.32;74.21;101367.25;4842519;29;20058;-58
2022/08/14 05:50:41;;;;;;;27.73;6.80;;;;;;;16.38;74.28;101360.94;4842475;29;20478;-58
2022/08/14 05:53:08;;;;;;;21.50;6.82;;;;;;;16.34;74.77;101365.16;4842236;29;20037;-58
2022/08/14 05:55:34;;;;;;;15.57;6.63;;;;;;;16.29;75.04;101365.84;4842217;29;20081;-58
2022/08/14 05:58:03;;;;;;;21.70;6.97;;;;;;;16.32;74.97;101368.09;4842697;29;20066;-58
2022/08/14 06:00:37;;;;;;;22.85;6.78;;;;;;;16.30;74.19;101367.50;4842067;29;20029;-58
2022/08/14 06:03:06;;;;;;;19.52;6.43;;;;;;;16.16;74.67;101362.50;4842241;29;20062;-58
2022/08/14 06:05:33;;;;;;;20.13;6.50;;;;;;;16.15;74.83;101368.97;4841978;29;20066;-58
2022/08/14 06:07:59;;;;;;;22.15;7.32;;;;;;;16.17;74.64;101364.19;4842394;29;20030;-58
2022/08/14 06:10:30;;;;;;;30.13;7.47;;;;;;;16.15;74.19;101361.69;4842292;29;20030;-58
2022/08/14 06:13:00;;;;;;;24.83;6.32;;;;;;;16.04;74.57;101365.16;4841367;29;20037;-58
2022/08/14 06:15:27;;;;;;;27.02;6.55;;;;;;;16.06;74.87;101366.59;4841998;29;20063;-58
2022/08/14 06:17:56;;;;;;;18.80;6.65;;;;;;;16.01;75.36;101363.75;4842191;29;20026;-58
2022/08/14 06:20:23;;;;;;;20.85;6.28;;;;;;;15.90;76.06;101364.53;4841778;29;20061;-58
2022/08/14 06:22:50;;;;;;;19.05;7.22;;;;;;;15.97;75.97;101357.16;4841955;29;20026;-58
2022/08/14 06:25:17;;;;;;;28.98;7.78;;;;;;;16.04;75.56;101357.88;4841837;29;20086;-58
2022/08/14 06:27:48;;;;;;;28.42;6.85;;;;;;;16.01;76.09;101355.66;4841886;29;20033;-58
2022/08/14 06:30:18;;;;;;;25.98;7.32;;;;;;;16.03;75.34;101353.53;4842338;29;20199;-59
2022/08/14 06:32:45;;;;;;;19.85;6.43;;;;;;;16.02;75.40;101349.19;4841897;29;20090;-58
2022/08/14 06:35:13;;;;;;;28.17;7.55;;;;;;;15.88;75.71;101355.84;4841920;29;20037;-57
2022/08/14 06:37:42;;;;;;;27.23;7.57;;;;;;;15.85;75.75;101359.00;4841865;29;20476;-58
2022/08/14 06:40:09;;;;;;;22.58;6.90;;;;;;;15.91;75.74;101358.09;4841981;29;20391;-58
2022/08/14 06:42:36;;;;;;;25.83;6.63;;;;;;;15.93;75.18;101361.38;4842253;29;20065;-57
2022/08/14 06:45:03;;;;;;;20.58;6.80;;;;;;;15.86;75.74;101362.53;4841703;29;20046;-58
2022/08/14 06:47:32;;;;;;;22.55;6.50;;;;;;;15.94;75.48;101363.03;4842010;29;20142;-58
2022/08/14 06:49:58;;;;;;;21.00;7.18;;;;;;;15.84;75.98;101360.06;4842058;29;20067;-58
2022/08/14 06:52:25;;;;;;;23.67;6.75;;;;;;;15.92;76.01;101370.53;4841982;29;20041;-57
2022/08/14 06:54:51;;;;;;;21.30;6.57;;;;;;;15.92;75.95;101370.53;4841772;29;20539;-58
2022/08/14 06:57:18;;;;;;;28.00;7.50;;;;;;;16.04;75.60;101368.69;4841702;29;20030;-57
2022/08/14 06:59:44;;;;;;;23.27;6.70;;;;;;;15.98;75.78;101377.72;4842037;29;20026;-58
2022/08/14 07:07:40;;;;;;;22.50;7.30;;;;;;;15.82;76.86;101360.28;4841859;29;20056;-58
2022/08/14 07:10:08;;;;;;;27.88;7.72;;;;;;;15.94;76.19;101365.75;4841778;29;20030;-58
2022/08/14 07:12:34;;;;;;;21.80;7.28;;;;;;;16.00;76.16;101362.13;4841627;29;20160;-58
2022/08/14 07:15:01;;;;;;;27.05;7.38;;;;;;;15.97;76.06;101364.44;4841812;29;20395;-57
2022/08/14 07:17:27;;;;;;;22.50;6.65;;;;;;;15.98;76.01;101363.38;4841756;29;20494;-58
2022/08/14 07:19:54;;;;;;;24.27;6.85;;;;;;;15.98;76.49;101360.69;4841854;29;20030;-58
2022/08/14 07:22:20;;;;;;;21.95;6.93;;;;;;;15.90;76.76;101369.13;4842723;29;20077;-58
2022/08/14 07:24:46;;;;;;;25.33;7.22;;;;;;;15.87;76.73;101369.56;4842815;29;20029;-58
2022/08/14 07:27:13;;;;;;;26.75;7.70;;;;;;;15.82;76.53;101367.53;4845555;29;20531;-57
2022/08/14 07:29:39;;;;;;;21.52;6.88;;;;;;;15.88;76.54;101355.84;4844970;29;20065;-58
2022/08/14 07:32:06;;;;;;;24.83;6.80;;;;;;;15.84;76.57;101360.06;4844728;29;20034;-58
2022/08/14 07:34:32;;;;;;;21.05;6.65;;;;;;;15.76;76.85;101363.06;4844736;29;20034;-58
2022/08/14 07:36:59;;;;;;;22.40;7.25;;;;;;;15.81;76.54;101361.31;4844675;29;20081;-58
2022/08/14 07:39:25;;;;;;;29.80;7.30;;;;;;;15.76;76.40;101365.75;4844637;29;20068;-58
2022/08/14 07:41:51;;;;;;;22.05;7.03;;;;;;;15.70;76.68;101355.88;4844562;29;20443;-58
2022/08/14 07:44:20;;;;;;;25.15;6.85;;;;;;;15.62;77.17;101356.16;4844535;29;20084;-58
2022/08/14 07:46:46;;;;;;;28.45;7.25;;;;;;;15.64;77.13;101349.50;4844400;29;20057;-58
2022/08/14 07:49:13;;;;;;;24.65;7.10;;;;;;;15.75;76.62;101356.84;4844595;29;20064;-58
2022/08/14 07:51:39;;;;;;;23.05;6.88;;;;;;;15.79;76.25;101360.75;4844552;29;20033;-58
2022/08/14 07:54:06;;;;;;;26.08;6.60;;;;;;;15.58;76.78;101356.59;4844412;29;20038;-58
2022/08/14 07:56:32;;;;;;;22.30;7.20;;;;;;;15.70;76.52;101361.28;4844380;29;20030;-58
2022/08/14 07:58:59;;;;;;;23.98;7.70;;;;;;;15.63;76.54;101355.97;4844349;29;20113;-58
2022/08/14 08:01:30;;;;;;;24.75;7.25;;;;;;;15.62;76.22;101361.56;4844347;29;20136;-58
2022/08/14 08:04:00;;;;;;;31.25;7.25;;;;;;;15.55;76.75;101362.47;4844095;29;20061;-58
2022/08/14 08:06:28;;;;;;;26.48;8.40;;;;;;;15.51;77.28;101361.25;4844426;29;20116;-58
2022/08/14 08:08:59;;;;;;;15.43;6.25;;;;;;;15.53;77.01;101364.56;4844082;29;20057;-58
2022/08/14 08:11:32;;;;;;;33.05;7.15;;;;;;;15.52;76.95;101362.91;4844315;29;20034;-58
2022/08/14 08:14:02;;;;;;;19.52;6.65;;;;;;;15.46;77.24;101360.28;4844120;29;20086;-58
2022/08/14 08:16:28;;;;;;;31.10;7.75;;;;;;;15.46;77.24;101358.41;4844082;29;20033;-58
2022/08/14 08:18:55;;;;;;;25.77;7.32;;;;;;;15.47;76.79;101365.44;4844100;29;20038;-58
2022/08/14 08:21:21;;;;;;;25.02;6.72;;;;;;;15.48;76.75;101364.41;4844270;29;20030;-58
2022/08/14 08:23:48;;;;;;;24.23;6.22;;;;;;;15.44;76.68;101360.53;4844124;29;20034;-58
2022/08/14 08:26:14;;;;;;;25.73;7.15;;;;;;;15.39;76.93;101354.97;4843959;29;20029;-58
2022/08/14 08:28:40;;;;;;;23.85;7.45;;;;;;;15.47;76.53;101351.97;4844137;29;20125;-58
2022/08/14 08:31:07;;;;;;;26.80;7.43;;;;;;;15.35;77.03;101351.06;4843800;29;20116;-58
2022/08/14 08:33:35;;;;;;;31.50;7.20;;;;;;;15.32;76.56;101351.50;4843770;29;20026;-58
2022/08/14 08:36:10;;;;;;;23.05;6.30;;;;;;;15.40;76.36;101353.94;4843022;29;20463;-58
2022/08/14 08:38:36;;;;;;;25.33;7.47;;;;;;;15.29;76.41;101349.28;4844253;29;20030;-58
2022/08/14 08:41:03;;;;;;;27.42;7.43;;;;;;;15.27;76.35;101354.91;4843812;29;20038;-58
2022/08/14 08:43:34;;;;;;;31.77;7.63;;;;;;;15.22;76.44;101367.41;4843657;29;20029;-58
2022/08/14 08:46:05;;;;;;;23.60;7.28;;;;;;;15.28;76.33;101361.13;4843510;29;20045;-58
2022/08/14 08:48:56;;;;;;;22.70;6.95;;;;;;;15.25;76.63;101353.47;4843152;29;20070;-58
2022/08/14 08:51:25;;;;;;;24.88;7.07;;;;;;;15.23;76.30;101356.41;4843599;29;20034;-58
2022/08/14 08:54:02;;;;;;;30.67;6.68;;;;;;;15.24;76.60;101359.91;4843498;29;20038;-58
2022/08/14 08:56:45;;;;;;;22.48;6.97;;;;;;;15.24;76.22;101359.91;4843756;29;20483;-58
2022/08/14 08:59:24;;;;;;;21.25;6.45;;;;;;;15.25;76.30;101361.56;4843296;29;20030;-58
2022/08/14 09:01:57;;;;;;;29.67;8.15;;;;;;;15.33;76.05;101355.88;4843176;29;20391;-58
2022/08/14 09:04:28;;;;;;;34.60;7.60;;;;;;;15.22;76.07;101351.25;4843319;29;20034;-58
2022/08/14 09:06:55;;;;;;;33.20;8.23;;;;;;;15.25;76.21;101351.59;4843181;29;20030;-58
2022/08/14 09:09:27;;;;;;;27.48;7.07;;;;;;;15.23;76.13;101353.69;4843152;29;20041;-58
2022/08/14 09:11:56;;;;;;;23.63;7.50;;;;;;;15.13;76.30;101355.25;4843370;29;20040;-58
2022/08/14 09:14:24;;;;;;;28.45;7.80;;;;;;;15.16;76.18;101352.97;4842993;29;20506;-58
2022/08/14 09:16:51;;;;;;;25.88;7.40;;;;;;;15.13;76.14;101364.19;4842979;29;20042;-58
2022/08/14 09:19:18;;;;;;;30.42;8.13;;;;;;;15.11;76.31;101357.38;4843457;29;20044;-58
2022/08/14 09:21:45;;;;;;;24.05;7.65;;;;;;;14.99;76.87;101355.41;4842937;29;20159;-58
2022/08/14 09:24:13;;;;;;;33.50;8.15;;;;;;;15.02;76.56;101356.81;4842839;29;20082;-58
2022/08/14 09:26:43;;;;;;;32.17;7.85;;;;;;;15.03;76.78;101356.59;4842865;29;20034;-58
2022/08/14 09:29:10;;;;;;;25.15;6.82;;;;;;;15.05;76.59;101359.91;4843200;29;20033;-58
2022/08/14 09:31:43;;;;;;;25.55;7.97;;;;;;;15.00;76.76;101348.16;4842766;29;20409;-58
2022/08/14 09:34:16;;;;;;;26.90;7.85;;;;;;;14.90;77.66;101354.03;4842700;29;20053;-58
2022/08/14 09:37:06;;;;;;;27.33;7.07;;;;;;;14.92;77.69;101359.19;4842648;29;20094;-58
2022/08/14 09:39:41;;;;;;;29.88;7.95;;;;;;;14.89;77.36;101359.66;4842451;29;20034;-58
2022/08/14 09:42:38;;;;;;;20.83;7.57;;;;;;;14.93;77.65;101358.97;4842690;29;20061;-58
2022/08/14 09:45:14;;;;;;;27.85;6.78;;;;;;;14.96;77.65;101357.72;4842540;29;20151;-58
2022/08/14 09:47:44;;;;;;;25.23;7.20;;;;;;;14.88;78.11;101361.53;4842253;29;20086;-58
2022/08/14 09:50:50;;;;;;;30.75;7.80;;;;;;;15.11;77.59;101373.56;4842436;29;20029;-58
2022/08/14 09:53:33;;;;;;;28.25;6.80;;;;;;;15.12;77.01;101378.72;4836640;29;20104;-58
2022/08/14 09:56:01;;;;;;;26.60;7.50;;;;;;;14.99;77.28;101368.91;4843189;29;20479;-58
2022/08/14 09:58:43;;;;;;;33.28;7.45;;;;;;;15.09;76.89;101359.44;4843127;29;20094;-58
2022/08/14 10:01:09;;;;;;;28.90;8.35;;;;;;;15.07;76.79;101354.28;4842358;29;20045;-58
2022/08/14 10:03:37;;;;;;;29.17;7.63;;;;;;;14.92;77.31;101346.53;4843519;29;20475;-58
2022/08/14 10:06:16;;;;;;;27.55;7.78;;;;;;;14.96;77.58;101342.38;4842245;29;20399;-58
2022/08/14 10:09:03;;;;;;;26.98;7.80;;;;;;;14.87;78.46;101348.25;4842149;29;20076;-58
2022/08/14 10:11:35;;;;;;;31.52;7.43;;;;;;;14.97;77.54;101343.19;4842062;29;20487;-58
2022/08/14 10:14:17;;;;;;;31.75;7.65;;;;;;;14.78;78.81;101345.03;4842150;29;20151;-58
2022/08/14 10:16:46;;;;;;;24.63;7.78;;;;;;;14.74;78.48;101344.66;4842470;29;20368;-58
2022/08/14 10:19:14;;;;;;;30.70;7.80;;;;;;;14.74;78.93;101343.81;4842040;29;20053;-58
2022/08/14 10:21:55;;;;;;;26.95;7.15;;;;;;;14.79;79.06;101342.13;4842169;29;20038;-58
2022/08/14 10:24:31;;;;;;;30.55;7.55;;;;;;;14.72;79.62;101340.53;4841802;29;20128;-58
2022/08/14 10:26:59;;;;;;;29.30;8.07;;;;;;;14.70;79.86;101346.13;4842296;29;20026;-58
2022/08/14 10:29:39;;;;;;;33.83;8.55;;;;;;;14.90;78.95;101347.81;4841889;29;20417;-58
2022/08/14 10:32:09;;;;;;;22.75;7.03;;;;;;;14.96;78.71;101353.16;4842297;29;20038;-58
2022/08/14 10:34:39;;;;;;;36.40;7.18;;;;;;;14.88;78.88;101350.75;4842205;29;20034;-58
2022/08/14 10:37:15;;;;;;;24.38;6.93;;;;;;;14.97;78.40;101346.69;4841870;29;20046;-58
2022/08/14 10:39:45;;;;;;;27.38;7.70;;;;;;;14.86;78.55;101352.81;4842425;29;20030;-58
2022/08/14 10:42:14;;;;;;;21.08;6.55;;;;;;;14.85;78.32;101351.19;4841804;29;20033;-58
2022/08/14 10:44:44;;;;;;;26.83;7.47;;;;;;;14.79;78.59;101352.06;4841686;29;20057;-58
2022/08/14 10:47:12;;;;;;;22.73;7.22;;;;;;;14.96;78.05;101355.84;4841805;29;20045;-58
2022/08/14 10:49:48;;;;;;;25.67;7.38;;;;;;;14.88;77.61;101347.22;4842012;29;20077;-58
2022/08/14 10:52:24;;;;;;;25.42;6.85;;;;;;;14.90;77.34;101350.53;4841852;29;20049;-58
2022/08/14 10:54:50;;;;;;;;;;;;;;;14.79;77.85;101352.06;4842270;29;20061;-58
2022/08/14 10:57:23;;;;;;;30.85;7.32;;;;;;;14.83;77.91;101350.59;4841851;29;19916;-57
2022/08/14 11:00:12;;;;;;;27.35;7.53;;;;;;;14.71;78.66;101357.72;4842797;29;20113;-57
2022/08/14 11:02:40;;;;;;;28.75;7.35;;;;;;;14.92;78.11;101353.81;4845363;29;20052;-58
2022/08/14 11:05:18;;;;;;;24.00;7.50;;;;;;;14.90;78.08;101351.34;4845339;29;20065;-58
2022/08/14 11:07:53;;;;;;;28.25;7.60;;;;;;;14.96;77.95;101353.16;4845245;29;20027;-58
2022/08/14 11:10:20;;;;;;;23.75;7.43;;;;;;;14.88;78.27;101350.75;4845207;29;20038;-58
2022/08/14 11:12:50;;;;;;;22.05;7.32;;;;;;;14.93;77.86;101350.88;4845113;29;20109;-58
2022/08/14 11:15:19;;;;;;;27.92;8.02;;;;;;;14.90;78.06;101355.91;4845167;29;20033;-58
2022/08/14 11:17:47;;;;;;;25.95;7.90;;;;;;;14.81;78.16;101355.34;4845029;29;20057;-58
2022/08/14 11:20:16;;;;;;;18.95;7.05;;;;;;;14.74;78.21;101358.13;4845082;29;20026;-58
2022/08/14 11:22:44;;;;;;;25.55;8.02;;;;;;;14.83;78.10;101355.16;4844973;29;20412;-57
2022/08/14 11:25:15;;;;;;;29.88;6.65;;;;;;;14.78;78.33;101350.44;4844854;29;20030;-58
2022/08/14 11:27:45;;;;;;;32.28;7.03;;;;;;;14.81;78.07;101365.31;4844902;29;20112;-58
2022/08/14 11:30:15;;;;;;;23.67;6.97;;;;;;;14.59;78.98;101354.94;4844994;29;20030;-58
2022/08/14 11:32:44;;;;;;;25.60;7.70;;;;;;;14.62;78.86;101356.38;4844756;29;20391;-58
2022/08/14 11:35:14;;;;;;;23.02;7.32;;;;;;;14.69;78.93;101357.13;4844815;29;20094;-58
2022/08/14 11:38:03;;;;;;;26.02;7.47;;;;;;;14.59;79.67;101351.41;4844744;29;20026;-58
2022/08/14 11:40:33;;;;;;;23.63;7.88;;;;;;;14.62;79.90;101348.28;4844861;29;20065;-58
2022/08/14 11:43:01;;;;;;;33.28;8.45;;;;;;;14.65;79.56;101345.13;4844520;29;20040;-58
2022/08/14 11:45:33;;;;;;;30.65;7.97;;;;;;;14.57;80.20;101351.63;4844429;29;20080;-58
2022/08/14 11:48:15;;;;;;;29.05;7.78;;;;;;;14.64;79.67;101349.69;4844529;29;20029;-58